Details From EGPF - Glasgow
To EGNR - Hawarden
Flight Number -
Tags generated
Created
Modified
Stats Distance 171 nm / 316 km
Max Altitude 15,600 ft / 4,755 m
Waypoints 3
Social Downloads 0
Likes 0
Share VATSIM

Download

Looking for another format? Having issues loading an existing format? Contact us
Advertisement - Login to hide

Notes

Basic altitude profile: - Ascent Rate: 2500ft/min - Ascent Speed: 250kts - Cruise Altitude: 35000ft - Cruise Speed: 420kts - Descent Rate: 1500ft/min - Descent Speed: 250kts Options: - Use NATs: no - Use PACOTS: no - Use low airways: yes - Use high airways: no

Route

EGPF SUBUK EGNR

ID Type Via Altitude Latitude Longitude Leg Dist Tot Dist Heading (true) Name
O EGPF APT - 0 ft / 0 m 55.87173˚ -4.43365˚ - 0 nm - Glasgow
SUBUK FIX - 15,600 ft / 4,755 m 54.38000˚ -3.28639˚ 97 nm 97 nm 156° / 157° -
O EGNR APT - 0 ft / 0 m 53.17813˚ -2.97766˚ 73 nm 170 nm 171° / 171° Hawarden

Altitude Profile

Advertisement - Login to hide

Weather


0- 5 10 15 20 25 30 35+ Temperature / ° C

Clouds and Precipitation
Forecast for 2018-05-25 12:00 UTC. Updated 6 hours ago

Ground ~20,000 ft ~40,000 ft Winds

EGPF

Details ICAO EGPF (GLA)
Name Glasgow
Region United Kingdom
Timezone Europe/London (UTC+1.0)
Stats Elevation 26 ft / 8 m (AMSL)
Location 55.871728° -4.433648°
Runways 1
Magnetic Variation 2.655° W

METAR

EGPF 251650Z AUTO 07015KT 9999 NCD 21/09 Q1025

Decode

TAF

TAF EGPF 251101Z 2512/2612 07008KT 9999 FEW030 TEMPO 2512/2518 07015G25KT PROB30 TEMPO 2520/2524 8000 -SHRA BKN014

Decode

Departure Runways

ID Width Length Bearing (true) Bearing (mag) Surface Threshold Offset Overrun Length
05 151 ft / 46 m 8,721 ft / 2,658 m 46.34° 49.00° Asphalt 0 ft / 0 m 499 ft / 152 m
23 151 ft / 46 m 8,721 ft / 2,658 m 226.37° 229.03° Asphalt 1,004 ft / 306 m 0 ft / 0 m

EGNR

Details ICAO EGNR (CEG)
Name Hawarden
Region United Kingdom
Timezone Europe/London (UTC+1.0)
Stats Elevation 45 ft / 14 m (AMSL)
Location 53.178130° -2.977664°
Runways 1
Magnetic Variation 1.630° W

METAR

EGNR 251650Z 04006KT 9000 BKN011 OVC036 15/13 Q1020

Decode

TAF

Not found

Destination Runways

ID Width Length Bearing (true) Bearing (mag) Surface Threshold Offset Overrun Length
05 148 ft / 45 m 6,680 ft / 2,036 m 40.93° 42.56° Asphalt 984 ft / 300 m 0 ft / 0 m
23 148 ft / 45 m 6,680 ft / 2,036 m 220.94° 222.57° Asphalt 984 ft / 300 m 0 ft / 0 m

Approach Navaids

Runway Type Ident Frequency Range Bearing (true) Bearing (mag) Slope Elevation
05 Localiser IHWD 110.35 MHz 18 nm / 33 km 34.27° 35.90° - 45 ft / 14 m (AMSL)
05 Glidescope IHWD 110.35 MHz 10 nm / 19 km 40.94° 42.57° 3.50° 42 ft / 13 m (AMSL)
05 DME IHWD 110.35 MHz 18 nm / 33 km - - - 45 ft / 14 m (AMSL)
23 Localiser IHDN 110.35 MHz 18 nm / 33 km 220.89° 222.52° - 32 ft / 10 m (AMSL)
23 Glidescope IHDN 110.35 MHz 10 nm / 19 km 220.94° 222.57° 3.00° 17 ft / 5 m (AMSL)
23 DME IHDN 110.35 MHz 18 nm / 33 km - - - 17 ft / 5 m (AMSL)